Terminal Aerodrome Forecast
Issued by NWS Goodland, KS

Home | Current Version | Previous Version | Text Only | Print | Product List | Glossary On
Versions: 1 2 3 4 5 6 7 8 9 10 11 12 13 14
029
FTUS43 KGLD 111120
TAFGLD
TAF
KGLD 111120Z 1112/1212 24011KT P6SM FEW250
     FM112000 32012G20KT P6SM SCT250
     FM120000 31007KT P6SM SKC=

USA.gov is the U.S. government's official web portal to all federal, state and local government web resources and services.